Etusivu
METAR-TAF:

METAR-TAF

Lentoasemat :

Åre Östersundin lentoasema

Östersund-Frösön, Ruotsi

Leveyspiiri: 63-11N, Pituuspiiri: 014-30E, korkeus merenpinnasta: 376 m

Tämänhetkinen sää

Tämä raportti tehtiin 1 tunti ja 19 minuuttia sitten, kello 04.50 UTC
Tuuli 18 kn etelästä
Lämpötila 2°C
Kosteus 75%
Ilmanpaine 987 hPa
Näkyvyys 10 km tai enemmän

METAR: ESNZ 240450Z AUTO 19018KT 9999 NCD 02/M02 Q0987

Aika: 07:09 (06:09 UTC)

Sääennuste

Tämä raportti tehtiin 12 tuntia ja 39 minuuttia sitten, kello 17.30 UTC
Ennuste voimassa 23. päivästä klo 18 UTC - 23. päivään klo 20 UTC
Tuuli 20 kn etelästä/kaakosta puuskistuen 32 kn:hen
Näkyvyys: 8000 m
Hajonneita pilviä 1800 ft:n korkeudessa
heikkoa sadetta
Ajoittain
23. päivästä klo 18 UTC - 23. päivään klo 20 UTC
Näkyvyys: 3000 m
Hajonneita pilviä 1200 ft:n korkeudessa
lumisadetta, sadetta,

TAF: ESNZ 231730Z 2318/2320 15020G32KT 8000 -RA BKN018 TEMPO 2318/2320 3000 SNRA BKN012

Säähavainnot ja -ennusteet yli 4000 lentoasemalta (METAR- ja TAF-raportit).

Käytössä olevat sääasemat on merkitty karttaan keltaisilla ja punaisilla pisteillä.

Aseta hiiri pisteen päälle nähdäksesi sääaseman nimen.

Klikkaa sitten nähdäksesi säähavainnot ja -ennusteet.

Kartan vaihtaminen: klikkaa mustalla rastilla varustettuja vihreitä pisteitä, niin voit zoomata sisään; viivalla varustettua vihreää pistettä, niin voit zoomata ulos tai vihreitä nuolia, niin pääset viereisille kartoille.


METAR-TAF: